createdAt,value
2023-05-07T00:00:06.468Z,0.40
2023-05-07T00:01:07.433Z,0.40
2023-05-07T00:02:06.816Z,0.60
2023-05-07T00:03:07.050Z,0.30
2023-05-07T00:04:07.210Z,0.50
2023-05-07T00:05:07.371Z,0.30
2023-05-07T00:06:07.435Z,0.40
2023-05-07T00:07:07.598Z,0.50
2023-05-07T00:08:08.589Z,0.60
2023-05-07T00:09:09.935Z,0.60
2023-05-07T00:10:08.226Z,0.40
2023-05-07T00:11:08.293Z,0.40
2023-05-07T00:12:08.990Z,0.40
2023-05-07T00:13:08.744Z,0.70
2023-05-07T00:14:09.926Z,0.30
2023-05-07T00:15:09.247Z,0.50
2023-05-07T00:16:09.511Z,0.40
2023-05-07T00:17:09.187Z,0.50
2023-05-07T00:18:09.338Z,0.60
2023-05-07T00:19:09.523Z,0.50
2023-05-07T00:20:09.868Z,0.60
2023-05-07T00:21:09.860Z,0.50
2023-05-07T00:22:11.946Z,0.40
2023-05-07T00:23:10.210Z,0.50
2023-05-07T00:24:10.410Z,0.30
2023-05-07T00:25:10.582Z,0.40
2023-05-07T00:26:10.743Z,0.60
2023-05-07T00:27:10.898Z,0.30
2023-05-07T00:28:11.078Z,0.50
2023-05-07T00:29:11.594Z,0.50
2023-05-07T00:30:13.561Z,0.40
2023-05-07T00:31:11.641Z,0.70
2023-05-07T00:32:11.864Z,0.30
2023-05-07T00:33:12.987Z,0.40
2023-05-07T00:34:12.376Z,0.60
2023-05-07T00:35:12.626Z,0.30
2023-05-07T00:36:14.473Z,0.40
2023-05-07T00:37:12.821Z,0.40
2023-05-07T00:38:13.001Z,0.40
2023-05-07T00:39:13.192Z,0.60
2023-05-07T00:40:14.448Z,0.30
2023-05-07T00:41:13.619Z,0.50
2023-05-07T00:42:15.438Z,0.30
2023-05-07T00:43:14.475Z,0.60
2023-05-07T00:44:14.242Z,0.60
2023-05-07T00:45:14.296Z,0.30
2023-05-07T00:46:35.529Z,0.60
2023-05-07T00:47:15.467Z,0.30
2023-05-07T00:48:15.331Z,0.40
2023-05-07T00:49:15.980Z,0.50
2023-05-07T00:50:15.211Z,0.50
2023-05-07T00:51:15.374Z,0.60
2023-05-07T00:52:15.532Z,0.40
2023-05-07T00:53:17.442Z,0.50
2023-05-07T00:54:15.800Z,0.80
2023-05-07T00:55:16.944Z,0.40
2023-05-07T00:56:16.506Z,0.50
2023-05-07T00:57:18.451Z,0.30
2023-05-07T00:58:16.451Z,0.40
2023-05-07T00:59:17.580Z,0.60
2023-05-07T01:00:17.442Z,0.40
2023-05-07T01:01:17.106Z,0.50
2023-05-07T01:02:17.154Z,0.40
2023-05-07T01:03:17.310Z,0.50
2023-05-07T01:04:17.659Z,0.40
2023-05-07T01:05:18.489Z,0.30
2023-05-07T01:06:17.892Z,0.70
2023-05-07T01:07:18.010Z,0.30
2023-05-07T01:08:18.150Z,0.50
2023-05-07T01:09:18.381Z,0.50
2023-05-07T01:10:20.453Z,0.50
2023-05-07T01:11:18.663Z,0.60
2023-05-07T01:12:18.818Z,0.40
2023-05-07T01:13:19.091Z,0.40
2023-05-07T01:14:20.485Z,0.50
2023-05-07T01:15:19.990Z,0.30
2023-05-07T01:16:19.551Z,0.60
2023-05-07T01:17:20.486Z,0.50
2023-05-07T01:18:21.465Z,0.30
2023-05-07T01:19:20.092Z,0.90
2023-05-07T01:20:20.210Z,0.50
2023-05-07T01:21:20.344Z,0.40
2023-05-07T01:22:20.483Z,0.50
2023-05-07T01:23:21.647Z,0.60
2023-05-07T01:24:20.744Z,0.50
2023-05-07T01:25:20.916Z,0.30
2023-05-07T01:26:22.954Z,0.60
2023-05-07T01:27:21.185Z,0.50
2023-05-07T01:28:21.310Z,0.50
2023-05-07T01:29:21.489Z,0.70
2023-05-07T01:30:22.356Z,0.30
2023-05-07T01:31:22.518Z,0.50
2023-05-07T01:32:22.007Z,0.40
2023-05-07T01:33:23.005Z,0.40
2023-05-07T01:34:22.372Z,0.50
2023-05-07T01:35:22.517Z,0.60
2023-05-07T01:36:22.651Z,0.40
2023-05-07T01:37:23.453Z,0.60
2023-05-07T01:38:23.484Z,0.40
2023-05-07T01:39:23.138Z,0.70
2023-05-07T01:40:23.289Z,0.40
2023-05-07T01:41:23.403Z,0.50
2023-05-07T01:42:23.539Z,0.60
2023-05-07T01:43:23.724Z,0.30
2023-05-07T01:44:23.883Z,0.50
2023-05-07T01:45:24.040Z,0.50
2023-05-07T01:46:24.313Z,0.40
2023-05-07T01:47:25.012Z,0.50
2023-05-07T01:48:24.487Z,0.30
2023-05-07T01:49:24.630Z,0.50
2023-05-07T01:50:25.456Z,0.40
2023-05-07T01:51:24.963Z,0.40
2023-05-07T01:52:25.115Z,0.70
2023-05-07T01:53:25.991Z,0.40
2023-05-07T01:54:25.406Z,0.50
2023-05-07T01:55:25.553Z,0.50
2023-05-07T01:56:25.694Z,0.40
2023-05-07T01:57:25.874Z,0.50
2023-05-07T01:58:26.020Z,0.50
2023-05-07T01:59:26.173Z,0.50
2023-05-07T02:00:27.020Z,0.60
2023-05-07T02:01:26.581Z,0.40
2023-05-07T02:02:27.682Z,0.60
2023-05-07T02:03:26.943Z,0.30
2023-05-07T02:04:27.021Z,0.50
2023-05-07T02:05:28.007Z,0.40
2023-05-07T02:06:27.396Z,0.50
2023-05-07T02:07:29.021Z,0.60
2023-05-07T02:08:27.761Z,0.30
2023-05-07T02:09:29.354Z,0.50
2023-05-07T02:10:28.087Z,0.40
2023-05-07T02:11:28.261Z,0.40
2023-05-07T02:12:28.425Z,0.50
2023-05-07T02:13:30.467Z,0.50
2023-05-07T02:14:28.829Z,0.40
2023-05-07T02:15:29.502Z,0.60
2023-05-07T02:16:30.068Z,0.30
2023-05-07T02:17:29.446Z,0.50
2023-05-07T02:18:29.683Z,0.50
2023-05-07T02:19:30.354Z,0.50
2023-05-07T02:20:29.872Z,0.60
2023-05-07T02:21:31.263Z,0.60
2023-05-07T02:22:31.219Z,0.50
2023-05-07T02:23:31.012Z,0.40
2023-05-07T02:24:30.507Z,0.50
2023-05-07T02:25:30.658Z,0.60
2023-05-07T02:26:31.016Z,0.40
2023-05-07T02:27:31.017Z,0.50
2023-05-07T02:28:32.970Z,0.30
2023-05-07T02:29:31.334Z,0.70
2023-05-07T02:30:32.857Z,0.50
2023-05-07T02:31:31.729Z,0.50
2023-05-07T02:32:31.919Z,0.60
2023-05-07T02:33:32.165Z,0.30
2023-05-07T02:34:32.190Z,0.70
2023-05-07T02:35:32.328Z,0.50
2023-05-07T02:36:33.862Z,0.50
2023-05-07T02:37:32.757Z,0.60
2023-05-07T02:38:32.917Z,0.30
2023-05-07T02:39:33.037Z,0.60
2023-05-07T02:40:33.983Z,0.40
2023-05-07T02:41:33.359Z,0.40
2023-05-07T02:42:33.505Z,0.60
2023-05-07T02:43:34.025Z,0.40
2023-05-07T02:44:34.517Z,0.60
2023-05-07T02:45:35.076Z,0.50
2023-05-07T02:46:34.208Z,0.70
2023-05-07T02:47:34.417Z,0.50
2023-05-07T02:48:36.182Z,0.40
2023-05-07T02:49:34.789Z,0.50
2023-05-07T02:50:34.924Z,0.30
2023-05-07T02:51:36.985Z,0.50
2023-05-07T02:52:35.306Z,0.40
2023-05-07T02:53:35.399Z,0.40
2023-05-07T02:54:35.559Z,0.60
2023-05-07T02:55:35.697Z,0.30
2023-05-07T02:56:35.812Z,0.60
2023-05-07T02:57:36.527Z,0.50
2023-05-07T02:58:36.160Z,0.70
2023-05-07T02:59:36.526Z,0.50
2023-05-07T03:00:36.410Z,0.30
2023-05-07T03:01:37.126Z,0.40
2023-05-07T03:02:36.772Z,0.50
2023-05-07T03:03:37.496Z,0.40
2023-05-07T03:04:37.457Z,0.50
2023-05-07T03:05:38.051Z,0.50
2023-05-07T03:06:37.575Z,0.60
2023-05-07T03:07:39.484Z,0.30
2023-05-07T03:08:37.836Z,0.50
2023-05-07T03:09:38.483Z,0.40
2023-05-07T03:10:38.984Z,0.40
2023-05-07T03:11:41.496Z,0.70
2023-05-07T03:12:39.989Z,0.40
2023-05-07T03:13:38.732Z,0.60
2023-05-07T03:14:40.372Z,0.30
2023-05-07T03:15:40.985Z,0.50
2023-05-07T03:16:40.415Z,0.60
2023-05-07T03:17:41.553Z,0.50
2023-05-07T03:18:40.476Z,0.70
2023-05-07T03:19:39.842Z,0.30
2023-05-07T03:20:40.636Z,0.60
2023-05-07T03:21:40.135Z,0.40
2023-05-07T03:22:40.398Z,0.40
2023-05-07T03:23:41.989Z,0.60
2023-05-07T03:24:42.483Z,0.50
2023-05-07T03:25:41.487Z,0.50
2023-05-07T03:26:41.086Z,0.50
2023-05-07T03:27:41.233Z,0.40
2023-05-07T03:28:41.365Z,0.80
2023-05-07T03:29:41.515Z,0.50
2023-05-07T03:30:41.654Z,0.60
2023-05-07T03:31:41.873Z,0.40
2023-05-07T03:32:41.983Z,0.50
2023-05-07T03:33:42.123Z,0.40
2023-05-07T03:34:44.497Z,0.70
2023-05-07T03:35:42.459Z,0.60
2023-05-07T03:36:42.691Z,0.40
2023-05-07T03:37:42.825Z,0.50
2023-05-07T03:38:42.985Z,0.30
2023-05-07T03:39:43.172Z,0.60
2023-05-07T03:40:43.321Z,0.60
2023-05-07T03:41:43.513Z,0.50
2023-05-07T03:42:44.486Z,0.50
2023-05-07T03:43:43.868Z,0.40
2023-05-07T03:44:45.985Z,0.40
2023-05-07T03:45:44.195Z,0.50
2023-05-07T03:46:45.083Z,0.30
2023-05-07T03:47:45.587Z,0.50
2023-05-07T03:48:44.743Z,0.70
2023-05-07T03:49:45.530Z,0.40
2023-05-07T03:50:45.121Z,0.70
2023-05-07T03:51:45.684Z,0.40
2023-05-07T03:52:45.322Z,0.60
2023-05-07T03:53:45.493Z,0.30
2023-05-07T03:54:46.495Z,0.40
2023-05-07T03:55:47.004Z,0.30
2023-05-07T03:56:46.039Z,0.60
2023-05-07T03:57:46.994Z,0.40
2023-05-07T03:58:46.414Z,0.50
2023-05-07T03:59:47.494Z,0.60
2023-05-07T04:00:47.499Z,0.40
2023-05-07T04:01:46.948Z,0.40
2023-05-07T04:02:48.128Z,0.40
2023-05-07T04:03:47.408Z,0.40
2023-05-07T04:04:47.466Z,0.70
2023-05-07T04:05:47.682Z,0.50
2023-05-07T04:06:47.868Z,0.50
2023-05-07T04:07:48.017Z,0.40
2023-05-07T04:08:48.140Z,0.50
2023-05-07T04:09:48.399Z,0.50
2023-05-07T04:10:48.531Z,0.60
2023-05-07T04:11:48.725Z,0.70
2023-05-07T04:12:49.589Z,0.40
2023-05-07T04:13:49.136Z,0.50
2023-05-07T04:14:49.275Z,0.60
2023-05-07T04:15:49.999Z,0.50
2023-05-07T04:16:49.699Z,0.60
2023-05-07T04:17:49.869Z,0.30
2023-05-07T04:18:49.947Z,0.60
2023-05-07T04:19:50.119Z,0.40
2023-05-07T04:20:50.558Z,0.30
2023-05-07T04:21:50.577Z,0.50
2023-05-07T04:22:51.502Z,0.70
2023-05-07T04:23:50.741Z,0.50
2023-05-07T04:24:50.884Z,0.50
2023-05-07T04:25:51.074Z,0.60
2023-05-07T04:26:51.232Z,0.30
2023-05-07T04:27:51.402Z,0.50
2023-05-07T04:28:51.597Z,0.50
2023-05-07T04:29:51.741Z,0.60
2023-05-07T04:30:51.877Z,0.50
2023-05-07T04:31:53.572Z,0.30
2023-05-07T04:32:53.578Z,0.40
2023-05-07T04:33:52.360Z,0.40
2023-05-07T04:34:52.506Z,0.50
2023-05-07T04:35:52.671Z,0.60
2023-05-07T04:36:55.095Z,0.40
2023-05-07T04:37:53.041Z,0.70
2023-05-07T04:38:53.560Z,0.30
2023-05-07T04:39:53.317Z,0.40
2023-05-07T04:40:53.478Z,0.50
2023-05-07T04:41:53.661Z,0.50
2023-05-07T04:42:53.822Z,0.60
2023-05-07T04:43:54.549Z,0.40
2023-05-07T04:44:54.178Z,0.40
2023-05-07T04:45:54.355Z,0.60
2023-05-07T04:46:54.562Z,0.30
2023-05-07T04:47:54.697Z,0.60
2023-05-07T04:48:54.837Z,0.60
2023-05-07T04:49:55.566Z,0.50
2023-05-07T04:50:56.048Z,0.60
2023-05-07T04:51:55.308Z,0.30
2023-05-07T04:52:55.533Z,0.50
2023-05-07T04:53:56.502Z,0.60
2023-05-07T04:54:56.510Z,0.40
2023-05-07T04:55:56.548Z,0.70
2023-05-07T04:56:56.187Z,0.40
2023-05-07T04:57:56.332Z,0.70
2023-05-07T04:58:56.501Z,0.50
2023-05-07T04:59:56.649Z,0.30
2023-05-07T05:00:57.652Z,0.70
2023-05-07T05:01:57.575Z,0.40
2023-05-07T05:02:58.098Z,0.50
2023-05-07T05:03:59.048Z,0.80
2023-05-07T05:04:57.483Z,0.40
2023-05-07T05:05:57.621Z,0.60
2023-05-07T05:06:57.766Z,0.50
2023-05-07T05:07:57.946Z,0.40
2023-05-07T05:08:58.215Z,0.60
2023-05-07T05:09:59.013Z,0.40
2023-05-07T05:10:58.396Z,0.50
2023-05-07T05:11:58.585Z,0.40
2023-05-07T05:13:00.042Z,0.40
2023-05-07T05:13:58.940Z,0.50
2023-05-07T05:14:59.106Z,0.40
2023-05-07T05:15:59.444Z,0.50
2023-05-07T05:16:59.425Z,0.50
2023-05-07T05:18:00.163Z,0.40
2023-05-07T05:18:59.732Z,0.70
2023-05-07T05:20:00.535Z,0.60
2023-05-07T05:21:00.033Z,0.60
2023-05-07T05:22:00.196Z,0.80
2023-05-07T05:23:00.323Z,0.60
2023-05-07T05:24:00.451Z,0.60
2023-05-07T05:25:01.614Z,0.70
2023-05-07T05:26:01.596Z,0.60
2023-05-07T05:27:01.912Z,0.50
2023-05-07T05:28:01.146Z,0.70
2023-05-07T05:29:01.331Z,0.50
2023-05-07T05:30:01.446Z,0.60
2023-05-07T05:31:03.106Z,0.50
2023-05-07T05:32:02.064Z,0.70
2023-05-07T05:33:02.166Z,0.70
2023-05-07T05:34:02.134Z,0.40
2023-05-07T05:35:04.541Z,0.50
2023-05-07T05:36:02.480Z,0.60
2023-05-07T05:37:02.611Z,0.70
2023-05-07T05:38:03.530Z,0.80
2023-05-07T05:39:03.567Z,0.80
2023-05-07T05:40:03.076Z,1.00
2023-05-07T05:41:03.236Z,0.60
2023-05-07T05:42:04.070Z,0.50
2023-05-07T05:43:03.601Z,0.50
2023-05-07T05:44:03.739Z,0.60
2023-05-07T05:45:04.081Z,0.60
2023-05-07T05:46:04.138Z,0.70
2023-05-07T05:47:05.527Z,0.90
2023-05-07T05:48:04.515Z,0.50
2023-05-07T05:49:04.699Z,0.70
2023-05-07T05:50:04.868Z,0.60
2023-05-07T05:51:05.116Z,0.50
2023-05-07T05:52:05.269Z,1.20
2023-05-07T05:53:06.064Z,0.50
2023-05-07T05:54:05.585Z,0.50
2023-05-07T05:55:05.771Z,0.70
2023-05-07T05:56:06.009Z,0.60
2023-05-07T05:57:06.135Z,0.40
2023-05-07T05:58:06.265Z,0.70
2023-05-07T05:59:07.097Z,0.50
2023-05-07T06:00:06.587Z,0.50
2023-05-07T06:01:06.779Z,0.60
2023-05-07T06:02:07.576Z,0.70
2023-05-07T06:03:07.167Z,0.40
2023-05-07T06:04:07.226Z,0.50
2023-05-07T06:05:07.385Z,0.70
2023-05-07T06:06:08.078Z,0.60
2023-05-07T06:07:09.033Z,0.60
2023-05-07T06:08:07.922Z,0.70
2023-05-07T06:09:08.091Z,0.60
2023-05-07T06:10:09.122Z,0.60
2023-05-07T06:11:09.493Z,0.80
2023-05-07T06:12:10.493Z,0.80
2023-05-07T06:13:08.858Z,0.90
2023-05-07T06:14:09.038Z,0.50
2023-05-07T06:15:09.207Z,0.70
2023-05-07T06:16:10.067Z,0.70
2023-05-07T06:17:11.049Z,0.60
2023-05-07T06:18:09.884Z,0.60
2023-05-07T06:19:10.546Z,0.70
2023-05-07T06:20:31.016Z,0.80
2023-05-07T06:21:11.661Z,0.60
2023-05-07T06:22:10.386Z,0.70
2023-05-07T06:23:10.562Z,0.70
2023-05-07T06:24:10.714Z,0.80
2023-05-07T06:25:11.572Z,0.80
2023-05-07T06:26:11.577Z,0.50
2023-05-07T06:27:11.191Z,0.90
2023-05-07T06:28:11.413Z,0.80
2023-05-07T06:29:11.708Z,0.80
2023-05-07T06:30:12.009Z,0.70
2023-05-07T06:31:11.989Z,0.60
2023-05-07T06:32:12.266Z,0.80
2023-05-07T06:33:12.283Z,1.00
2023-05-07T06:34:12.426Z,0.70
2023-05-07T06:35:12.547Z,0.80
2023-05-07T06:36:12.683Z,0.60
2023-05-07T06:37:13.546Z,0.60
2023-05-07T06:38:13.009Z,0.60
2023-05-07T06:39:13.217Z,0.70
2023-05-07T06:40:14.552Z,0.80
2023-05-07T06:41:13.613Z,0.90
2023-05-07T06:42:13.962Z,0.60
2023-05-07T06:43:15.046Z,0.80
2023-05-07T06:44:15.048Z,1.10
2023-05-07T06:45:14.605Z,0.70
2023-05-07T06:46:14.634Z,0.90
2023-05-07T06:47:16.052Z,0.90
2023-05-07T06:48:16.043Z,0.90
2023-05-07T06:49:36.980Z,0.80
2023-05-07T06:50:16.608Z,0.90
2023-05-07T06:51:16.548Z,0.80
2023-05-07T06:52:16.552Z,0.90
2023-05-07T06:53:16.596Z,0.80
2023-05-07T06:54:17.108Z,0.90
2023-05-07T06:55:16.355Z,0.80
2023-05-07T06:56:16.627Z,0.70
2023-05-07T06:57:16.721Z,0.80
2023-05-07T06:58:16.861Z,0.80
2023-05-07T06:59:17.122Z,0.80
2023-05-07T07:00:18.100Z,0.80
2023-05-07T07:01:17.662Z,0.90
2023-05-07T07:02:18.688Z,1.00
2023-05-07T07:03:19.569Z,1.10
2023-05-07T07:04:17.967Z,1.10
2023-05-07T07:05:19.055Z,1.10
2023-05-07T07:06:18.304Z,1.50
2023-05-07T07:07:18.469Z,1.00
2023-05-07T07:08:18.656Z,0.90
2023-05-07T07:09:21.586Z,0.90
2023-05-07T07:10:18.995Z,1.00
2023-05-07T07:11:19.612Z,1.00
2023-05-07T07:12:19.438Z,1.00
2023-05-07T07:13:19.662Z,1.20
2023-05-07T07:14:20.554Z,1.20
2023-05-07T07:15:19.936Z,0.90
2023-05-07T07:16:20.152Z,0.90
2023-05-07T07:17:22.025Z,0.90
2023-05-07T07:18:20.616Z,0.80
2023-05-07T07:19:20.639Z,0.90
2023-05-07T07:20:20.791Z,1.00
2023-05-07T07:21:20.935Z,1.20
2023-05-07T07:22:22.053Z,1.00
2023-05-07T07:23:22.062Z,0.90
2023-05-07T07:24:23.564Z,1.10
2023-05-07T07:25:21.663Z,1.00
2023-05-07T07:26:21.822Z,0.80
2023-05-07T07:27:21.969Z,1.00
2023-05-07T07:28:22.187Z,0.90
2023-05-07T07:29:22.318Z,0.80
2023-05-07T07:30:24.082Z,1.00
2023-05-07T07:31:22.808Z,0.80
2023-05-07T07:32:24.017Z,1.10
2023-05-07T07:33:23.154Z,1.10
2023-05-07T07:34:23.371Z,0.90
2023-05-07T07:35:25.627Z,0.90
2023-05-07T07:36:32.105Z,0.90
2023-05-07T07:37:24.773Z,0.90
2023-05-07T07:38:23.985Z,1.00
2023-05-07T07:39:24.145Z,1.00
2023-05-07T07:40:24.414Z,1.10
2023-05-07T07:41:24.466Z,1.10
2023-05-07T07:42:24.616Z,0.90
2023-05-07T07:43:26.587Z,1.00
2023-05-07T07:44:25.608Z,0.90
2023-05-07T07:45:25.092Z,0.90
2023-05-07T07:46:25.227Z,1.10
2023-05-07T07:47:25.434Z,1.10
2023-05-07T07:48:26.645Z,1.30
2023-05-07T07:49:25.775Z,1.00
2023-05-07T07:50:42.939Z,1.00
2023-05-07T07:51:29.110Z,1.10
2023-05-07T07:52:27.065Z,1.20
2023-05-07T07:53:27.101Z,1.00
2023-05-07T07:54:27.624Z,1.20
2023-05-07T07:55:26.880Z,0.90
2023-05-07T07:56:27.008Z,0.80
2023-05-07T07:57:27.617Z,0.90
2023-05-07T07:58:27.354Z,0.90
2023-05-07T07:59:28.159Z,0.90
2023-05-07T08:00:27.760Z,0.80
2023-05-07T08:01:27.907Z,0.80
2023-05-07T08:02:28.130Z,0.70
2023-05-07T08:03:28.291Z,0.90
2023-05-07T08:04:28.430Z,0.80
2023-05-07T08:05:29.572Z,0.90
2023-05-07T08:06:28.798Z,0.80
2023-05-07T08:07:29.130Z,0.70
2023-05-07T08:08:29.160Z,0.70
2023-05-07T08:09:29.310Z,0.70
2023-05-07T08:10:29.457Z,0.80
2023-05-07T08:11:29.617Z,0.80
2023-05-07T08:12:29.801Z,0.80
2023-05-07T08:13:30.001Z,0.80
2023-05-07T08:14:31.202Z,1.00
2023-05-07T08:15:31.584Z,1.10
2023-05-07T08:16:31.315Z,1.20
2023-05-07T08:17:30.715Z,1.30
2023-05-07T08:18:30.773Z,1.10
2023-05-07T08:19:30.952Z,1.10
2023-05-07T08:20:31.158Z,1.20
2023-05-07T08:21:32.469Z,1.10
2023-05-07T08:22:31.491Z,1.00
2023-05-07T08:23:32.582Z,1.00
2023-05-07T08:24:31.833Z,1.20
2023-05-07T08:25:31.971Z,1.20
2023-05-07T08:26:32.115Z,1.00
2023-05-07T08:27:32.269Z,1.10
2023-05-07T08:28:32.423Z,1.10
2023-05-07T08:29:33.180Z,1.00
2023-05-07T08:30:32.824Z,1.00
2023-05-07T08:31:32.992Z,1.00
2023-05-07T08:32:33.658Z,1.00
2023-05-07T08:33:35.130Z,0.90
2023-05-07T08:34:33.502Z,0.80
2023-05-07T08:35:33.692Z,1.10
2023-05-07T08:36:33.857Z,0.90
2023-05-07T08:37:34.046Z,1.00
2023-05-07T08:38:34.661Z,1.00
2023-05-07T08:39:34.437Z,1.00
2023-05-07T08:40:35.092Z,1.20
2023-05-07T08:41:34.717Z,1.10
2023-05-07T08:42:34.876Z,1.20
2023-05-07T08:43:35.634Z,1.00
2023-05-07T08:44:35.492Z,1.00
2023-05-07T08:45:35.353Z,1.10
2023-05-07T08:46:35.537Z,1.00
2023-05-07T08:47:35.722Z,0.80
2023-05-07T08:48:35.871Z,0.90
2023-05-07T08:49:36.056Z,0.90
2023-05-07T08:50:37.133Z,0.90
2023-05-07T08:51:36.409Z,1.00
2023-05-07T08:52:36.526Z,1.10
2023-05-07T08:53:38.628Z,1.00
2023-05-07T08:54:37.593Z,1.10
2023-05-07T08:55:37.094Z,1.10
2023-05-07T08:56:38.112Z,1.30
2023-05-07T08:57:40.046Z,1.20
2023-05-07T08:58:38.099Z,0.90
2023-05-07T08:59:37.720Z,0.80
2023-05-07T09:00:37.935Z,1.00
2023-05-07T09:01:38.127Z,1.20
2023-05-07T09:02:38.203Z,1.00
2023-05-07T09:03:39.179Z,1.30
2023-05-07T09:04:38.612Z,1.10
2023-05-07T09:05:39.633Z,1.40
2023-05-07T09:06:38.885Z,1.10
2023-05-07T09:07:39.642Z,0.90
2023-05-07T09:08:39.156Z,0.90
2023-05-07T09:09:40.142Z,1.00
2023-05-07T09:10:39.643Z,1.10
2023-05-07T09:11:39.780Z,1.20
2023-05-07T09:12:39.952Z,1.10
2023-05-07T09:13:40.132Z,1.10
2023-05-07T09:14:41.143Z,1.10
2023-05-07T09:15:40.548Z,1.20
2023-05-07T09:16:40.754Z,1.60
2023-05-07T09:17:40.850Z,1.10
2023-05-07T09:18:43.113Z,1.00
2023-05-07T09:19:42.103Z,0.90
2023-05-07T09:20:42.099Z,1.10
2023-05-07T09:21:41.650Z,1.10
2023-05-07T09:22:42.630Z,1.00
2023-05-07T09:23:41.866Z,0.90
2023-05-07T09:24:42.013Z,1.00
2023-05-07T09:25:43.129Z,1.50
2023-05-07T09:26:42.385Z,1.10
2023-05-07T09:27:42.523Z,1.00
2023-05-07T09:28:43.651Z,1.00
2023-05-07T09:29:43.618Z,1.00
2023-05-07T09:30:43.713Z,1.20
2023-05-07T09:31:43.346Z,1.20
2023-05-07T09:32:43.411Z,1.10
2023-05-07T09:33:43.467Z,1.00
2023-05-07T09:34:43.591Z,0.90
2023-05-07T09:35:44.162Z,1.20
2023-05-07T09:36:44.687Z,1.30
2023-05-07T09:37:45.156Z,1.10
2023-05-07T09:38:44.372Z,1.00
2023-05-07T09:39:44.529Z,1.10
2023-05-07T09:40:45.182Z,1.10
2023-05-07T09:41:45.617Z,1.20
2023-05-07T09:42:45.109Z,1.10
2023-05-07T09:43:45.248Z,1.00
2023-05-07T09:44:45.377Z,1.10
2023-05-07T09:45:45.698Z,1.20
2023-05-07T09:46:45.810Z,1.20
2023-05-07T09:47:46.680Z,1.10
2023-05-07T09:48:46.169Z,0.90
2023-05-07T09:49:46.191Z,1.10
2023-05-07T09:50:46.330Z,1.10
2023-05-07T09:51:46.484Z,1.20
2023-05-07T09:52:46.648Z,1.10
2023-05-07T09:53:48.113Z,1.00
2023-05-07T09:54:47.752Z,1.10
2023-05-07T09:55:48.175Z,1.20
2023-05-07T09:56:49.126Z,1.00
2023-05-07T09:57:49.122Z,0.90
2023-05-07T09:58:48.634Z,1.00
2023-05-07T09:59:48.182Z,1.60
2023-05-07T10:00:48.164Z,1.20
2023-05-07T10:01:49.319Z,1.10
2023-05-07T10:02:48.551Z,1.10
2023-05-07T10:03:49.847Z,1.40
2023-05-07T10:04:49.625Z,1.20
2023-05-07T10:05:48.930Z,1.20
2023-05-07T10:06:49.093Z,1.20
2023-05-07T10:07:50.121Z,1.20
2023-05-07T10:08:49.513Z,1.30
2023-05-07T10:09:49.672Z,1.00
2023-05-07T10:10:50.632Z,1.40
2023-05-07T10:11:50.026Z,1.40
2023-05-07T10:12:50.228Z,1.20
2023-05-07T10:13:50.422Z,1.10
2023-05-07T10:14:51.402Z,1.10
2023-05-07T10:15:50.822Z,1.00
2023-05-07T10:16:50.990Z,0.90
2023-05-07T10:17:51.338Z,1.20
2023-05-07T10:18:51.376Z,1.20
2023-05-07T10:19:51.544Z,0.90
2023-05-07T10:20:55.148Z,1.10
2023-05-07T10:21:51.889Z,1.30
2023-05-07T10:22:54.126Z,1.10
2023-05-07T10:23:53.629Z,0.90
2023-05-07T10:24:52.415Z,1.00
2023-05-07T10:25:57.263Z,1.10
2023-05-07T10:26:53.735Z,1.20
2023-05-07T10:27:52.872Z,1.00
2023-05-07T10:28:53.050Z,1.00
2023-05-07T10:29:54.127Z,0.90
2023-05-07T10:30:53.384Z,1.00
2023-05-07T10:31:53.554Z,1.10
2023-05-07T10:32:54.876Z,1.20
2023-05-07T10:33:53.878Z,0.80
2023-05-07T10:34:54.043Z,1.40
2023-05-07T10:35:54.156Z,1.00
2023-05-07T10:36:55.193Z,0.90
2023-05-07T10:37:56.137Z,0.80
2023-05-07T10:38:54.759Z,0.80
2023-05-07T10:39:55.637Z,0.90
2023-05-07T10:40:55.060Z,0.80
2023-05-07T10:41:55.228Z,0.90
2023-05-07T10:42:56.184Z,1.10
2023-05-07T10:43:56.205Z,1.10
2023-05-07T10:44:55.754Z,1.00
2023-05-07T10:45:56.668Z,1.00
2023-05-07T10:46:56.189Z,1.00
2023-05-07T10:47:56.244Z,0.90
2023-05-07T10:48:56.479Z,1.10
2023-05-07T10:49:57.191Z,0.90
2023-05-07T10:50:57.641Z,0.90
2023-05-07T10:51:57.005Z,0.80
2023-05-07T10:52:58.141Z,0.80
2023-05-07T10:53:57.297Z,0.90
2023-05-07T10:54:58.184Z,0.90
2023-05-07T10:55:58.188Z,0.90
2023-05-07T10:56:58.682Z,1.00
2023-05-07T10:57:58.197Z,1.20
2023-05-07T10:58:58.684Z,1.10
2023-05-07T10:59:59.353Z,1.00
2023-05-07T11:01:00.142Z,1.00
2023-05-07T11:01:59.381Z,1.10
2023-05-07T11:02:59.256Z,1.10
2023-05-07T11:03:59.777Z,1.00
2023-05-07T11:04:59.299Z,1.00
2023-05-07T11:06:00.181Z,1.20
2023-05-07T11:06:59.537Z,0.90
2023-05-07T11:08:00.199Z,1.00
2023-05-07T11:08:59.827Z,0.90
2023-05-07T11:10:00.002Z,0.90
2023-05-07T11:11:00.205Z,1.00
2023-05-07T11:12:00.343Z,1.00
2023-05-07T11:13:00.518Z,1.00
2023-05-07T11:14:00.696Z,1.00
2023-05-07T11:15:00.834Z,1.00
2023-05-07T11:16:01.643Z,0.90
2023-05-07T11:17:02.640Z,1.10
2023-05-07T11:18:01.755Z,0.80
2023-05-07T11:19:01.615Z,0.90
2023-05-07T11:20:01.818Z,1.20
2023-05-07T11:21:03.663Z,1.00
2023-05-07T11:22:02.659Z,1.00
2023-05-07T11:23:02.294Z,1.00
2023-05-07T11:24:02.445Z,1.10
2023-05-07T11:25:04.167Z,1.00
2023-05-07T11:26:04.554Z,1.10
2023-05-07T11:27:02.904Z,1.00
2023-05-07T11:28:03.080Z,1.00
2023-05-07T11:29:05.150Z,0.70
2023-05-07T11:30:03.374Z,1.20
2023-05-07T11:31:04.189Z,1.20
2023-05-07T11:32:03.854Z,1.00
2023-05-07T11:33:03.889Z,1.20
2023-05-07T11:34:03.968Z,1.20
2023-05-07T11:35:05.741Z,1.20
2023-05-07T11:36:05.213Z,1.40
2023-05-07T11:37:04.597Z,1.40
2023-05-07T11:38:04.761Z,1.20
2023-05-07T11:39:06.659Z,1.00
2023-05-07T11:40:05.141Z,1.30
2023-05-07T11:41:05.306Z,1.50
2023-05-07T11:42:05.544Z,1.10
2023-05-07T11:43:05.706Z,1.30
2023-05-07T11:44:06.224Z,1.40
2023-05-07T11:45:05.992Z,1.40
2023-05-07T11:46:06.242Z,1.20
2023-05-07T11:47:06.309Z,1.00
2023-05-07T11:48:07.238Z,1.20
2023-05-07T11:49:06.674Z,1.20
2023-05-07T11:50:06.925Z,1.50
2023-05-07T11:51:07.017Z,1.10
2023-05-07T11:52:07.190Z,1.20
2023-05-07T11:53:07.370Z,1.00
2023-05-07T11:54:07.543Z,1.10
2023-05-07T11:55:07.729Z,1.40
2023-05-07T11:56:08.700Z,1.10
2023-05-07T11:57:09.547Z,1.00
2023-05-07T11:58:10.751Z,0.90
2023-05-07T11:59:08.484Z,1.00
2023-05-07T12:00:08.709Z,1.30
2023-05-07T12:01:08.781Z,1.40
2023-05-07T12:02:09.069Z,1.00
2023-05-07T12:03:10.373Z,1.00
2023-05-07T12:04:09.571Z,1.10
2023-05-07T12:05:10.516Z,1.00
2023-05-07T12:06:09.816Z,1.10
2023-05-07T12:07:10.264Z,1.00
2023-05-07T12:08:10.206Z,1.00
2023-05-07T12:09:10.435Z,1.10
2023-05-07T12:10:10.632Z,1.10
2023-05-07T12:11:11.732Z,1.00
2023-05-07T12:12:11.227Z,1.10
2023-05-07T12:13:11.711Z,1.10
2023-05-07T12:14:12.498Z,1.00
2023-05-07T12:15:12.741Z,1.00
2023-05-07T12:16:11.661Z,0.90
2023-05-07T12:17:12.596Z,1.00
2023-05-07T12:18:12.092Z,0.90
2023-05-07T12:19:13.750Z,0.90
2023-05-07T12:20:12.386Z,1.00
2023-05-07T12:21:12.640Z,1.00
2023-05-07T12:22:14.180Z,0.90
2023-05-07T12:23:13.761Z,1.10
2023-05-07T12:24:15.693Z,1.00
2023-05-07T12:25:13.595Z,1.20
2023-05-07T12:26:13.479Z,1.00
2023-05-07T12:27:14.220Z,1.00
2023-05-07T12:28:14.679Z,1.00
2023-05-07T12:29:14.610Z,1.10
2023-05-07T12:30:15.245Z,0.90
2023-05-07T12:31:15.305Z,1.00
2023-05-07T12:32:14.712Z,1.00
2023-05-07T12:33:14.858Z,1.10
2023-05-07T12:34:15.809Z,1.30
2023-05-07T12:35:15.196Z,0.90
2023-05-07T12:36:15.346Z,1.00
2023-05-07T12:37:16.236Z,0.80
2023-05-07T12:38:16.566Z,1.10
2023-05-07T12:39:16.718Z,0.80
2023-05-07T12:40:15.992Z,0.80
2023-05-07T12:41:16.152Z,1.10
2023-05-07T12:42:17.243Z,1.00
2023-05-07T12:43:17.184Z,0.80
2023-05-07T12:44:16.692Z,0.90
2023-05-07T12:45:17.496Z,0.80
2023-05-07T12:46:18.722Z,0.90
2023-05-07T12:47:17.227Z,0.90
2023-05-07T12:48:17.385Z,1.00
2023-05-07T12:49:19.075Z,1.20
2023-05-07T12:50:17.685Z,1.10
2023-05-07T12:51:17.872Z,1.20
2023-05-07T12:52:18.733Z,0.90
2023-05-07T12:53:18.155Z,1.10
2023-05-07T12:54:19.228Z,1.00
2023-05-07T12:55:18.460Z,0.90
2023-05-07T12:56:18.623Z,1.10
2023-05-07T12:57:18.748Z,1.40
2023-05-07T12:58:18.994Z,0.80
2023-05-07T12:59:20.189Z,1.00
2023-05-07T13:00:20.232Z,0.70
2023-05-07T13:01:19.597Z,0.60
2023-05-07T13:02:19.626Z,0.80
2023-05-07T13:03:21.257Z,1.00
2023-05-07T13:04:20.623Z,0.80
2023-05-07T13:05:20.112Z,0.90
2023-05-07T13:06:21.258Z,1.00
2023-05-07T13:07:20.400Z,0.90
2023-05-07T13:08:21.239Z,1.10
2023-05-07T13:09:20.749Z,1.00
2023-05-07T13:10:20.921Z,0.90
2023-05-07T13:11:21.692Z,1.00
2023-05-07T13:12:21.214Z,0.80
2023-05-07T13:13:22.346Z,0.70
2023-05-07T13:14:22.193Z,1.00
2023-05-07T13:15:21.843Z,0.80
2023-05-07T13:16:22.718Z,1.10
2023-05-07T13:17:22.377Z,1.20
2023-05-07T13:18:22.518Z,1.00
2023-05-07T13:19:22.658Z,1.20
2023-05-07T13:20:22.826Z,0.80